地図

経路データ

SID SEASON NUMBER BASIN SUBBASIN NAME ISO_TIME NATURE LAT LON WMO_WIND WMO_PRES WMO_AGENCY TRACK_TYPE DIST2LAND LANDFALL IFLAG USA_AGENCY USA_ATCF_ID USA_LAT USA_LON USA_RECORD USA_STATUS USA_WIND USA_PRES USA_SSHS USA_R34_NE USA_R34_SE USA_R34_SW USA_R34_NW USA_R50_NE USA_R50_SE USA_R50_SW USA_R50_NW USA_R64_NE USA_R64_SE USA_R64_SW USA_R64_NW USA_POCI USA_ROCI USA_RMW USA_EYE TOKYO_LAT TOKYO_LON TOKYO_GRADE TOKYO_WIND TOKYO_PRES TOKYO_R50_DIR TOKYO_R50_LONG TOKYO_R50_SHORT TOKYO_R30_DIR TOKYO_R30_LONG TOKYO_R30_SHORT TOKYO_LAND CMA_LAT CMA_LON CMA_CAT CMA_WIND CMA_PRES HKO_LAT HKO_LON HKO_CAT HKO_WIND HKO_PRES NEWDELHI_LAT NEWDELHI_LON NEWDELHI_GRADE NEWDELHI_WIND NEWDELHI_PRES NEWDELHI_CI NEWDELHI_DP NEWDELHI_POCI REUNION_LAT REUNION_LON REUNION_TYPE REUNION_WIND REUNION_PRES REUNION_TNUM REUNION_CI REUNION_RMW REUNION_R34_NE REUNION_R34_SE REUNION_R34_SW REUNION_R34_NW REUNION_R50_NE REUNION_R50_SE REUNION_R50_SW REUNION_R50_NW REUNION_R64_NE REUNION_R64_SE REUNION_R64_SW REUNION_R64_NW BOM_LAT BOM_LON BOM_TYPE BOM_WIND BOM_PRES BOM_TNUM BOM_CI BOM_RMW BOM_R34_NE BOM_R34_SE BOM_R34_SW BOM_R34_NW BOM_R50_NE BOM_R50_SE BOM_R50_SW BOM_R50_NW BOM_R64_NE BOM_R64_SE BOM_R64_SW BOM_R64_NW BOM_ROCI BOM_POCI BOM_EYE BOM_POS_METHOD BOM_PRES_METHOD NADI_LAT NADI_LON NADI_CAT NADI_WIND NADI_PRES WELLINGTON_LAT WELLINGTON_LON WELLINGTON_WIND WELLINGTON_PRES DS824_LAT DS824_LON DS824_STAGE DS824_WIND DS824_PRES TD9636_LAT TD9636_LON TD9636_STAGE TD9636_WIND TD9636_PRES TD9635_LAT TD9635_LON TD9635_WIND TD9635_PRES TD9635_ROCI NEUMANN_LAT NEUMANN_LON NEUMANN_CLASS NEUMANN_WIND NEUMANN_PRES MLC_LAT MLC_LON MLC_CLASS MLC_WIND MLC_PRES USA_GUST BOM_GUST BOM_GUST_PER REUNION_GUST REUNION_GUST_PER USA_SEAHGT USA_SEARAD_NE USA_SEARAD_SE USA_SEARAD_SW USA_SEARAD_NW STORM_SPEED STORM_DIR
1954191N15255 1954 29 EP MM NOT_NAMED 1954-07-10 00:00:00 TS 15.1000 -105.200 45 hurdat_epa main 401 391 O________OO___ hurdat_epa EP021954 15.1000 -105.200 TS 45 0 15.1000 -105.200 TC 45 15.1000 -105.200 2 10 307
1954191N15255 1954 29 EP MM NOT_NAMED 1954-07-10 03:00:00 TS 15.3963 -105.604 main 394 387 P________PP___ EP021954 15.3826 -105.592 TS 45 0 15.3826 -105.592 TC 45 15.4511 -105.648 2 10 308
1954191N15255 1954 29 EP MM NOT_NAMED 1954-07-10 06:00:00 TS 15.7183 -106.016 45 hurdat_epa main 394 386 O________OP___ hurdat_epa EP021954 15.7000 -106.000 TS 45 0 15.7000 -106.000 TC 45 15.7914 -106.078 2 11 310
1954191N15255 1954 29 EP MM NOT_NAMED 1954-07-10 09:00:00 TS 16.0742 -106.432 main 386 372 P________PP___ EP021954 16.0650 -106.422 TS 45 0 16.0650 -106.422 TC 45 16.1109 -106.469 2 10 312
1954191N15255 1954 29 EP MM NOT_NAMED 1954-07-10 12:00:00 TS 16.4000 -106.800 45 hurdat_epa main 378 372 O________OO___ hurdat_epa EP021954 16.4000 -106.800 TS 45 0 16.4000 -106.800 TC 45 16.4000 -106.800 2 8 312
1954191N15255 1954 29 EP MM NOT_NAMED 1954-07-10 15:00:00 TS 16.6224 -107.065 main 379 369 P________PP___ EP021954 16.6148 -107.065 TS 45 0 16.6148 -107.065 TC 45 16.6528 -107.063 2 6 311
1954191N15255 1954 29 EP MM NOT_NAMED 1954-07-10 18:00:00 TS 16.8157 -107.300 45 hurdat_epa main 376 368 O________OP___ hurdat_epa EP021954 16.8000 -107.300 TS 45 0 16.8000 -107.300 TC 45 16.8785 -107.299 2 6 312
1954191N15255 1954 29 EP MM NOT_NAMED 1954-07-10 21:00:00 TS 17.0398 -107.556 main 384 376 P________PP___ EP021954 17.0273 -107.555 TS 45 0 17.0273 -107.555 TC 45 17.0901 -107.560 2 8 310
1954191N15255 1954 29 EP MM NOT_NAMED 1954-07-11 00:00:00 TS 17.3000 -107.900 45 hurdat_epa main 383 383 O________OO___ hurdat_epa EP021954 17.3000 -107.900 TS 45 0 17.3000 -107.900 TC 45 17.3000 -107.900 2 10 307
1954191N15255 1954 29 EP MM NOT_NAMED 1954-07-11 03:00:00 TS 17.6512 -108.399 main 395 395 P________PP___ EP021954 17.6725 -108.405 TS 45 0 17.6725 -108.405 TC 45 17.5658 -108.376 2 12 303
1954191N15255 1954 29 EP MM NOT_NAMED 1954-07-11 06:00:00 TS 17.9650 -108.987 45 hurdat_epa main 430 430 O________OP___ hurdat_epa EP021954 18.0000 -109.000 TS 45 0 18.0000 -109.000 TC 45 17.8252 -108.936 2 12 293
1954191N15255 1954 29 EP MM NOT_NAMED 1954-07-11 09:00:00 TS 18.1312 -109.579 main 480 480 P________PP___ EP021954 18.1523 -109.585 TS 45 0 18.1523 -109.585 TC 45 18.0469 -109.554 2 12 282
1954191N15255 1954 29 EP MM NOT_NAMED 1954-07-11 12:00:00 TS 18.2000 -110.200 45 hurdat_epa main 526 526 O________OO___ hurdat_epa EP021954 18.2000 -110.200 TS 45 0 18.2000 -110.200 TC 45 18.2000 -110.200 2 12 275
1954191N15255 1954 29 EP MM NOT_NAMED 1954-07-11 15:00:00 TS 18.2273 -110.843 main 532 532 P________PP___ EP021954 18.2224 -110.843 TS 45 0 18.2224 -110.843 TC 45 18.2469 -110.846 2 12 270
1954191N15255 1954 29 EP MM NOT_NAMED 1954-07-11 18:00:00 TS 18.2050 -111.502 45 hurdat_epa main 548 548 O________OP___ hurdat_epa EP021954 18.2000 -111.500 TS 45 0 18.2000 -111.500 TC 45 18.2251 -111.509 2 13 267
1954191N15255 1954 29 EP MM NOT_NAMED 1954-07-11 21:00:00 TS 18.1531 -112.166 main 573 573 P________PP___ EP021954 18.1499 -112.165 TS 45 0 18.1499 -112.165 TC 45 18.1657 -112.168 2 12 265
1954191N15255 1954 29 EP MM NOT_NAMED 1954-07-12 00:00:00 TS 18.1000 -112.800 45 hurdat_epa main 610 610 O________OO___ hurdat_epa EP021954 18.1000 -112.800 TS 45 0 18.1000 -112.800 TC 45 18.1000 -112.800 2 12 267
1954191N15255 1954 29 EP MM NOT_NAMED 1954-07-12 03:00:00 TS 18.0947 -113.374 main 642 642 P________PP___ EP021954 18.0997 -113.365 TS 45 0 18.0997 -113.365 TC 45 18.0747 -113.411 2 11 269
1954191N15255 1954 29 EP MM NOT_NAMED 1954-07-12 06:00:00 TS 18.0899 -113.918 45 hurdat_epa main 673 673 O________OP___ hurdat_epa EP021954 18.1000 -113.900 TS 45 0 18.1000 -113.900 TC 45 18.0497 -113.990 2 11 267
1954191N15255 1954 29 EP MM NOT_NAMED 1954-07-12 09:00:00 TS 18.0450 -114.489 main 721 721 P________PP___ EP021954 18.0501 -114.480 TS 45 0 18.0501 -114.480 TC 45 18.0249 -114.524 2 10 265
1954191N15255 1954 29 EP MM NOT_NAMED 1954-07-12 12:00:00 TS 18.0000 -115.000 45 hurdat_epa main 755 755 O________OO___ hurdat_epa EP021954 18.0000 -115.000 TS 45 0 18.0000 -115.000 TC 45 18.0000 -115.000 2 9 267
1954191N15255 1954 29 EP MM NOT_NAMED 1954-07-12 15:00:00 TS 17.9963 -115.389 main 785 785 P________PP___ EP021954 17.9997 -115.380 TS 45 0 17.9997 -115.380 TC 45 17.9825 -115.428 2 7 269
1954191N15255 1954 29 EP MM NOT_NAMED 1954-07-12 18:00:00 TS 17.9929 -115.719 45 hurdat_epa main 807 807 O________OP___ hurdat_epa EP021954 18.0000 -115.700 TS 45 0 18.0000 -115.700 TC 45 17.9643 -115.797 2 7 266
1954191N15255 1954 29 EP MM NOT_NAMED 1954-07-12 21:00:00 TS 17.9538 -116.082 main 838 838 P________PP___ EP021954 17.9575 -116.073 TS 45 0 17.9575 -116.073 TC 45 17.9390 -116.118 2 7 262
1954191N15255 1954 29 EP MM NOT_NAMED 1954-07-13 00:00:00 TS 17.9000 -116.400 45 hurdat_epa main 870 870 O________OO___ hurdat_epa EP021954 17.9000 -116.400 TS 45 0 17.9000 -116.400 TC 45 17.9000 -116.400 2 5 259
1954191N15255 1954 29 EP MM NOT_NAMED 1954-07-13 03:00:00 TS 17.8569 -116.623 main 886 886 P________PP___ EP021954 17.8574 -116.615 TS 45 0 17.8574 -116.615 TC 45 17.8553 -116.657 2 4 256
1954191N15255 1954 29 EP MM NOT_NAMED 1954-07-13 06:00:00 TS 17.7989 -116.816 45 hurdat_epa main 909 909 O________OP___ hurdat_epa EP021954 17.8000 -116.800 TS 45 0 17.8000 -116.800 TC 45 17.7945 -116.880 2 4 251
1954191N15255 1954 29 EP MM NOT_NAMED 1954-07-13 09:00:00 TS 17.7143 -117.052 main 937 937 P________PP___ EP021954 17.7150 -117.042 TS 45 0 17.7150 -117.042 TC 45 17.7116 -117.088 2 5 247
1954191N15255 1954 29 EP MM NOT_NAMED 1954-07-13 12:00:00 TS 17.6000 -117.300 45 hurdat_epa main 959 959 O________OO___ hurdat_epa EP021954 17.6000 -117.300 TS 45 0 17.6000 -117.300 TC 45 17.6000 -117.300 2 5 242
1954191N15255 1954 29 EP MM NOT_NAMED 1954-07-13 15:00:00 TS 17.4611 -117.546 main 980 980 P________PP___ EP021954 17.4650 -117.550 TS 45 0 17.4650 -117.550 TC 45 17.4455 -117.531 2 6 237
1954191N15255 1954 29 EP MM NOT_NAMED 1954-07-13 18:00:00 TS 17.2929 -117.794 45 hurdat_epa main 1016 1016 O________OP___ hurdat_epa EP021954 17.3000 -117.800 TS 45 0 17.3000 -117.800 TC 45 17.2647 -117.770 2 6 231
1954191N15255 1954 29 EP MM NOT_NAMED 1954-07-13 21:00:00 TS 17.0893 -118.033 main 1047 1047 P________PP___ EP021954 17.0924 -118.035 TS 45 0 17.0924 -118.035 TC 45 17.0767 -118.024 2 6 231
1954191N15255 1954 29 EP MM NOT_NAMED 1954-07-14 00:00:00 TS 16.9000 -118.300 45 hurdat_epa main 1084 1084 O________OO___ hurdat_epa EP021954 16.9000 -118.300 TS 45 0 16.9000 -118.300 TC 45 16.9000 -118.300 2 7 242
1954191N15255 1954 29 EP MM NOT_NAMED 1954-07-14 03:00:00 TS 16.7878 -118.636 main 1111 1111 P________PP___ EP021954 16.7925 -118.642 TS 45 0 16.7925 -118.642 TC 45 16.7688 -118.611 2 7 252
1954191N15255 1954 29 EP MM NOT_NAMED 1954-07-14 06:00:00 TS 16.6900 -118.988 45 hurdat_epa main 1146 1146 O________OP___ hurdat_epa EP021954 16.7000 -119.000 TS 45 0 16.7000 -119.000 TC 45 16.6501 -118.942 2 7 250
1954191N15255 1954 29 EP MM NOT_NAMED 1954-07-14 09:00:00 TS 16.5522 -119.301 main 1174 1174 P________PP___ EP021954 16.5574 -119.307 TS 45 0 16.5574 -119.307 TC 45 16.5313 -119.277 2 7 244
1954191N15255 1954 29 EP MM NOT_NAMED 1954-07-14 12:00:00 TS 16.4000 -119.600 45 hurdat_epa main 1212 1212 O________OO___ hurdat_epa EP021954 16.4000 -119.600 TS 45 0 16.4000 -119.600 TC 45 16.4000 -119.600 2 7 243
1954191N15255 1954 29 EP MM NOT_NAMED 1954-07-14 15:00:00 TS 16.2530 -119.905 main 1241 1241 P________PP___ EP021954 16.2575 -119.907 TS 45 0 16.2575 -119.907 TC 45 16.2351 -119.893 2 7 242
1954191N15255 1954 29 EP MM NOT_NAMED 1954-07-14 18:00:00 TS 16.0915 -120.194 45 hurdat_epa main 1278 1278 O________OP___ hurdat_epa EP021954 16.1000 -120.200 TS 45 0 16.1000 -120.200 TC 45 16.0573 -120.172 2 6 236
1954191N15255 1954 29 EP MM NOT_NAMED 1954-07-14 21:00:00 TS 15.8951 -120.454 main 1316 1316 P________PP___ EP021954 15.8999 -120.457 TS 45 0 15.8999 -120.457 TC 45 15.8758 -120.440 2 6 231
1954191N15255 1954 29 EP MM NOT_NAMED 1954-07-15 00:00:00 TS 15.7000 -120.700 45 hurdat_epa main 1347 1347 O________OO___ hurdat_epa EP021954 15.7000 -120.700 TS 45 0 15.7000 -120.700 TC 45 15.7000 -120.700 2 6 234
1954191N15255 1954 29 EP MM NOT_NAMED 1954-07-15 03:00:00 TS 15.5409 -120.955 main 1385 1385 P________PP___ EP021954 15.5425 -120.950 TS 45 0 15.5425 -120.950 TC 45 15.5347 -120.973 2 6 238
1954191N15255 1954 29 EP MM NOT_NAMED 1954-07-15 06:00:00 TS 15.3955 -121.207 45 hurdat_epa main 1407 1407 O________OP___ hurdat_epa EP021954 15.4000 -121.200 TS 45 0 15.4000 -121.200 TC 45 15.3775 -121.237 2 6 239
1954191N15255 1954 29 EP MM NOT_NAMED 1954-07-15 09:00:00 TS 15.2403 -121.469 main 1445 1445 P________PP___ EP021954 15.2425 -121.465 TS 45 0 15.2425 -121.465 TC 45 15.2316 -121.483 2 6 238
1954191N15255 1954 29 EP MM NOT_NAMED 1954-07-15 12:00:00 TS 15.1000 -121.700 45 hurdat_epa main 1468 1468 O________OO___ hurdat_epa EP021954 15.1000 -121.700 TS 45 0 15.1000 -121.700 TC 45 15.1000 -121.700 2 5 237
1954191N15255 1954 29 EP MM NOT_NAMED 1954-07-15 15:00:00 TS 14.9909 -121.869 main 1491 1491 P________PP___ EP021954 14.9925 -121.865 TS 45 0 14.9925 -121.865 TC 45 14.9847 -121.883 2 4 235
1954191N15255 1954 29 EP MM NOT_NAMED 1954-07-15 18:00:00 TS 14.8965 -122.007 45 hurdat_epa main 1506 1506 O________OP___ hurdat_epa EP021954 14.9000 -122.000 TS 45 0 14.9000 -122.000 TC 45 14.8825 -122.038 2 3 235
1954191N15255 1954 29 EP MM NOT_NAMED 1954-07-15 21:00:00 TS 14.7998 -122.151 main 1529 1529 P________PP___ EP021954 14.8025 -122.145 TS 45 0 14.8025 -122.145 TC 45 14.7891 -122.173 2 3 235
1954191N15255 1954 29 EP MM NOT_NAMED 1954-07-16 00:00:00 TS 14.7000 -122.300 45 hurdat_epa main 1544 O________OO___ hurdat_epa EP021954 14.7000 -122.300 TS 45 0 14.7000 -122.300 TC 45 14.7000 -122.300 2 4 235

IBTrACS Databaseについて

本データベースは、米国NOAAが公開する1842年以降の世界の熱帯低気圧のベストトラックデータアーカイブInternational Best Track Archive for Climate Stewardship (IBTrACS)を、ウェブで閲覧しやすい形式に変換したものです。

最終更新日:2021-12-03